Flight Track Log - Related Links

Times and Time Zones

All times are in EST time to prevent confusion due to time zone crossing. See the JBU56 flight status page for this flight to view local times or setup timezone preferences in your user account.

Time Position Orientation Groundspeed Altitude Reporting Facility
EST Latitude Longitude Course Direction KTS MPH feet Rate Location/Type
Sun 09:48:49 AM 38.9667 -77.5333 90° East 190 219 2,700  Level Potomac TRACON
Sun 09:49:43 AM 39.0167 -77.5500 345° North 207 238 4,800 2,278 Climbing Potomac TRACON
Sun 09:50:37 AM 39.0667 -77.5333 15° North 264 304 6,800 2,600 Climbing Potomac TRACON
Sun 09:51:00 AM 39.1935 -77.0369 74° East  Level Estimated
Sun 09:51:43 AM 39.1500 -77.4500 38° Northeast 308 354 10,000  Level Potomac TRACON
Sun 09:52:00 AM 39.1776 -76.9061 99° East  Level FlightAware Approximate
Sun 09:53:00 AM 39.2398 -76.8008 76° East  Level Estimated
Sun 09:53:51 AM 39.1606 -77.2325 86° East 318 366 10,200  Level Washington Center
Sun 09:54:00 AM 39.3020 -76.6954 90° East  Level Estimated
Sun 09:54:49 AM 39.1311 -77.1114 107° East 331 381 12,200  Level Washington Center
Sun 09:55:50 AM 39.1158 -76.9775 98° East 353 406 15,100 2,607 Climbing Washington Center
Sun 09:56:51 AM 39.1236 -76.8358 86° East 374 430 17,500 2,269 Climbing Washington Center
Sun 09:57:49 AM 39.1292 -76.6914 87° East 389 448 19,600 2,218 Climbing Washington Center
Sun 09:58:50 AM 39.1369 -76.5389 86° East 407 468 21,900 1,672 Climbing Washington Center
Sun 09:59:51 AM 39.1419 -76.4158 87° East 418 481 23,000 545 Climbing Washington Center
Sun 10:00:51 AM 39.1492 -76.2314 87° East 423 487 23,000  Level Washington Center
Sun 10:01:49 AM 39.1686 -76.0922 80° East 423 487 23,000 454 Level Washington Center
Sun 10:02:50 AM 39.1817 -75.9719 82° East 423 487 23,900 1,475 Climbing Washington Center
Sun 10:03:51 AM 39.2486 -75.8114 62° Northeast 423 487 26,000 1,815 Climbing Washington Center
Sun 10:04:49 AM 39.3342 -75.6989 45° Northeast 421 484 27,500 1,563 Climbing Washington Center
Sun 10:05:50 AM 39.4239 -75.5836 45° Northeast 428 493 29,100 1,587 Climbing Washington Center
Sun 10:06:50 AM 39.5114 -75.4706 45° Northeast 435 501 30,700 942 Climbing Washington Center
Sun 10:07:51 AM 39.5986 -75.3544 46° Northeast 440 506 31,000 87 Climbing Washington Center
Sun 10:10:16 AM 39.8239 -75.0361 47° Northeast 478 550 31,000  Level New York Center
Sun 10:11:16 AM 39.9078 -74.9058 50° Northeast 472 543 31,000  Level New York Center
Sun 10:12:16 AM 39.9889 -74.7833 49° Northeast 465 535 31,000  Level New York Center
Sun 10:13:16 AM 40.0747 -74.6528 49° Northeast 465 535 31,000  Level New York Center
Sun 10:14:16 AM 40.1581 -74.5242 50° Northeast 465 535 31,000 -50 Level New York Center
Sun 10:15:16 AM 40.2456 -74.3931 49° Northeast 471 542 30,900  Descending New York Center
Sun 10:16:16 AM 40.3308 -74.2642 49° Northeast 471 542 31,000 50 Climbing New York Center
Sun 10:17:16 AM 40.4158 -74.1322 50° Northeast 471 542 31,000  Level New York Center
Sun 10:19:19 AM 40.5825 -73.8789 49° Northeast 477 549 31,000  Level Boston Center
Sun 10:20:20 AM 40.6672 -73.7453 50° Northeast 476 548 31,000 -836 Level Boston Center
Sun 10:21:21 AM 40.7522 -73.6136 50° Northeast 473 544 29,300 -1,835 Descending Boston Center
Sun 10:22:21 AM 40.8339 -73.4844 50° Northeast 461 531 27,300 -1,131 Descending Boston Center
Sun 10:23:23 AM 40.9167 -73.3572 49° Northeast 457 526 27,000 -683 Descending Boston Center
Sun 10:24:24 AM 41.0003 -73.2322 48° Northeast 453 521 25,900 -1,672 Descending Boston Center
Sun 10:25:25 AM 41.0828 -73.1092 48° Northeast 451 519 23,600 -2,293 Descending Boston Center
Sun 10:26:27 AM 41.1614 -72.9936 48° Northeast 441 507 21,200 -1,268 Descending Boston Center
Sun 10:27:28 AM 41.2453 -72.8444 53° Northeast 425 489 21,000 -99 Descending Boston Center
Sun 10:28:28 AM 41.3000 -72.6986 63° Northeast 427 491 21,000  Level Boston Center
Sun 10:29:29 AM 41.3531 -72.5561 64° Northeast 428 493 21,000  Level Boston Center
Sun 10:30:32 AM 41.4050 -72.4136 64° Northeast 427 491 21,000  Level Boston Center
Sun 10:31:33 AM 41.4583 -72.2714 63° Northeast 428 493 21,000  Level Boston Center
Sun 10:32:33 AM 41.5094 -72.1278 65° Northeast 428 493 21,000  Level Boston Center
Sun 10:33:34 AM 41.5567 -71.9972 64° Northeast 429 494 21,000 -145 Level Boston Center
Sun 10:34:37 AM 41.5997 -71.8497 69° East 430 495 20,700 -1,220 Descending Boston Center
Sun 10:35:37 AM 41.6506 -71.6817 68° East 427 491 18,500 -2,033 Descending Boston Center
Sun 10:36:38 AM 41.6950 -71.5342 68° East 408 470 16,600 -1,835 Descending Boston Center
Sun 10:37:38 AM 41.7369 -71.4003 67° East 394 453 14,800 -1,884 Descending Boston Center
Sun 10:38:39 AM 41.7950 -71.2669 60° Northeast 389 448 12,800 -1,728 Descending Boston Center
Sun 10:39:43 AM 41.8461 -71.1464 60° Northeast 374 430 11,200 -947 Descending Boston Center
Sun 10:40:33 AM 41.8833 -71.0500 63° Northeast 354 407 11,000 -109 Descending KA90
Sun 10:41:33 AM 41.9333 -70.9333 60° Northeast 346 398 11,000  Level KA90
Sun 10:42:33 AM 41.9833 -70.8167 60° Northeast 348 400 11,000 -500 Level KA90
Sun 10:43:33 AM 42.0500 -70.7167 48° Northeast 334 384 10,000 -1,400 Descending KA90
Sun 10:44:33 AM 42.1000 -70.6333 51° Northeast 320 368 8,200 -1,550 Descending KA90
Sun 10:45:33 AM 42.1833 -70.6000 17° North 284 327 6,900 -1,150 Descending KA90
Sun 10:46:33 AM 42.2667 -70.5667 16° North 285 328 5,900 -905 Descending KA90
Sun 10:47:39 AM 42.3333 -70.5667 360° North 259 298 5,000 -571 Descending KA90
Sun 10:48:39 AM 42.3833 -70.6333 315° West 254 292 4,700 -400 Descending KA90
Sun 10:49:39 AM 42.4333 -70.7000 315° West 211 243 4,200 -842 Descending KA90
Sun 10:50:33 AM 42.4667 -70.7500 312° West 216 249 3,100 -626 Descending KA90
Sun 10:51:34 AM 42.5000 -70.8167 304° West 212 244 3,000 -50 Descending KA90
Sun 10:52:33 AM 42.5333 -70.8833 304° West 176 203 3,000 -200 Level KA90
Sun 10:53:34 AM 42.5167 -70.9333 246° West 155 178 2,600 -496 Descending KA90
Sun 10:54:34 AM 42.4667 -70.9500 194° South 151 174 2,000 -600 Descending KA90
Sun 10:55:34 AM 42.4333 -70.9667 200° South 142 163 1,400 -650 Descending KA90
Sun 10:56:34 AM 42.4000 -70.9833 200° South 118 136 700 -700 Descending KA90

Login

Don't have an account? Register now (free) for customized features, flight alerts, and more!